sensor_id;sensor_type;location;lat;lon;timestamp;temperature;humidity
84389;DHT22;74589;48.846;2.382;2024-01-30T00:01:25;13.10;14.90
84389;DHT22;74589;48.846;2.382;2024-01-30T00:03:50;13.10;14.90
84389;DHT22;74589;48.846;2.382;2024-01-30T00:06:19;13.20;14.40
84389;DHT22;74589;48.846;2.382;2024-01-30T00:08:46;13.10;14.70
84389;DHT22;74589;48.846;2.382;2024-01-30T00:11:14;13.10;15.00
84389;DHT22;74589;48.846;2.382;2024-01-30T00:13:40;13.10;15.10
84389;DHT22;74589;48.846;2.382;2024-01-30T00:16:06;13.10;15.20
84389;DHT22;74589;48.846;2.382;2024-01-30T00:18:32;13.00;15.10
84389;DHT22;74589;48.846;2.382;2024-01-30T00:20:57;13.10;15.20
84389;DHT22;74589;48.846;2.382;2024-01-30T00:23:23;13.10;15.00
84389;DHT22;74589;48.846;2.382;2024-01-30T00:25:49;13.10;15.10
84389;DHT22;74589;48.846;2.382;2024-01-30T00:28:15;13.10;15.10
84389;DHT22;74589;48.846;2.382;2024-01-30T00:30:41;13.10;15.00
84389;DHT22;74589;48.846;2.382;2024-01-30T00:33:06;13.10;15.00
84389;DHT22;74589;48.846;2.382;2024-01-30T00:35:33;13.20;14.80
84389;DHT22;74589;48.846;2.382;2024-01-30T00:37:58;13.20;14.80
84389;DHT22;74589;48.846;2.382;2024-01-30T00:40:24;13.30;14.60
84389;DHT22;74589;48.846;2.382;2024-01-30T00:42:50;13.40;13.90
84389;DHT22;74589;48.846;2.382;2024-01-30T00:45:16;13.40;13.90
84389;DHT22;74589;48.846;2.382;2024-01-30T00:47:42;13.30;14.50
84389;DHT22;74589;48.846;2.382;2024-01-30T00:50:09;13.30;14.30
84389;DHT22;74589;48.846;2.382;2024-01-30T00:52:35;13.30;14.00
84389;DHT22;74589;48.846;2.382;2024-01-30T00:55:01;13.40;13.80
84389;DHT22;74589;48.846;2.382;2024-01-30T00:57:27;13.30;14.20
84389;DHT22;74589;48.846;2.382;2024-01-30T00:59:52;13.20;14.80
84389;DHT22;74589;48.846;2.382;2024-01-30T01:02:18;13.20;14.90
84389;DHT22;74589;48.846;2.382;2024-01-30T01:04:44;13.20;14.80
84389;DHT22;74589;48.846;2.382;2024-01-30T01:07:10;13.20;15.10
84389;DHT22;74589;48.846;2.382;2024-01-30T01:09:36;13.10;15.20
84389;DHT22;74589;48.846;2.382;2024-01-30T01:12:02;13.00;15.60
84389;DHT22;74589;48.846;2.382;2024-01-30T01:14:28;13.10;15.60
84389;DHT22;74589;48.846;2.382;2024-01-30T01:16:54;13.10;15.60
84389;DHT22;74589;48.846;2.382;2024-01-30T01:19:19;13.20;15.30
84389;DHT22;74589;48.846;2.382;2024-01-30T01:21:45;13.20;14.90
84389;DHT22;74589;48.846;2.382;2024-01-30T01:24:11;13.20;15.20
84389;DHT22;74589;48.846;2.382;2024-01-30T01:26:36;13.20;15.10
84389;DHT22;74589;48.846;2.382;2024-01-30T01:29:02;13.30;15.00
84389;DHT22;74589;48.846;2.382;2024-01-30T01:31:35;13.30;15.10
84389;DHT22;74589;48.846;2.382;2024-01-30T01:34:05;13.20;15.00
84389;DHT22;74589;48.846;2.382;2024-01-30T01:36:31;13.20;15.50
84389;DHT22;74589;48.846;2.382;2024-01-30T01:38:56;13.20;15.70
84389;DHT22;74589;48.846;2.382;2024-01-30T01:41:22;13.10;15.70
84389;DHT22;74589;48.846;2.382;2024-01-30T01:43:48;13.30;15.10
84389;DHT22;74589;48.846;2.382;2024-01-30T01:46:13;13.20;15.40
84389;DHT22;74589;48.846;2.382;2024-01-30T01:48:39;13.20;15.40
84389;DHT22;74589;48.846;2.382;2024-01-30T01:51:05;13.30;15.40
84389;DHT22;74589;48.846;2.382;2024-01-30T01:53:32;13.20;15.30
84389;DHT22;74589;48.846;2.382;2024-01-30T01:55:58;13.30;15.20
84389;DHT22;74589;48.846;2.382;2024-01-30T01:58:26;13.30;15.10
84389;DHT22;74589;48.846;2.382;2024-01-30T02:00:54;13.20;15.30
84389;DHT22;74589;48.846;2.382;2024-01-30T02:03:20;13.00;16.40
84389;DHT22;74589;48.846;2.382;2024-01-30T02:05:47;13.10;16.00
84389;DHT22;74589;48.846;2.382;2024-01-30T02:08:12;13.20;15.90
84389;DHT22;74589;48.846;2.382;2024-01-30T02:10:38;13.00;16.40
84389;DHT22;74589;48.846;2.382;2024-01-30T02:13:04;13.10;16.60
84389;DHT22;74589;48.846;2.382;2024-01-30T02:15:30;13.10;15.90
84389;DHT22;74589;48.846;2.382;2024-01-30T02:17:55;13.00;16.40
84389;DHT22;74589;48.846;2.382;2024-01-30T02:20:22;12.90;17.10
84389;DHT22;74589;48.846;2.382;2024-01-30T02:22:49;12.90;17.20
84389;DHT22;74589;48.846;2.382;2024-01-30T02:25:14;12.80;17.70
84389;DHT22;74589;48.846;2.382;2024-01-30T02:27:40;12.90;17.20
84389;DHT22;74589;48.846;2.382;2024-01-30T02:30:06;12.80;17.70
84389;DHT22;74589;48.846;2.382;2024-01-30T02:32:32;12.80;17.70
84389;DHT22;74589;48.846;2.382;2024-01-30T02:34:57;12.90;17.30
84389;DHT22;74589;48.846;2.382;2024-01-30T02:37:23;12.90;17.40
84389;DHT22;74589;48.846;2.382;2024-01-30T02:39:49;12.90;17.60
84389;DHT22;74589;48.846;2.382;2024-01-30T02:42:14;12.90;18.10
84389;DHT22;74589;48.846;2.382;2024-01-30T02:44:40;12.90;17.90
84389;DHT22;74589;48.846;2.382;2024-01-30T02:47:06;12.80;18.50
84389;DHT22;74589;48.846;2.382;2024-01-30T02:49:32;12.80;18.30
84389;DHT22;74589;48.846;2.382;2024-01-30T02:51:57;12.90;18.00
84389;DHT22;74589;48.846;2.382;2024-01-30T02:54:23;13.00;17.60
84389;DHT22;74589;48.846;2.382;2024-01-30T02:56:48;13.10;17.30
84389;DHT22;74589;48.846;2.382;2024-01-30T02:59:14;13.00;17.50
84389;DHT22;74589;48.846;2.382;2024-01-30T03:01:43;12.90;17.90
84389;DHT22;74589;48.846;2.382;2024-01-30T03:04:09;12.90;18.20
84389;DHT22;74589;48.846;2.382;2024-01-30T03:06:35;12.80;18.60
84389;DHT22;74589;48.846;2.382;2024-01-30T03:09:01;12.80;18.90
84389;DHT22;74589;48.846;2.382;2024-01-30T03:11:27;12.80;18.80
84389;DHT22;74589;48.846;2.382;2024-01-30T03:13:52;12.90;18.90
84389;DHT22;74589;48.846;2.382;2024-01-30T03:16:18;12.90;18.90
84389;DHT22;74589;48.846;2.382;2024-01-30T03:18:44;12.90;19.10
84389;DHT22;74589;48.846;2.382;2024-01-30T03:21:09;12.70;19.80
84389;DHT22;74589;48.846;2.382;2024-01-30T03:23:35;12.70;19.60
84389;DHT22;74589;48.846;2.382;2024-01-30T03:26:00;12.80;19.40
84389;DHT22;74589;48.846;2.382;2024-01-30T03:28:26;12.80;19.60
84389;DHT22;74589;48.846;2.382;2024-01-30T03:30:52;12.70;19.80
84389;DHT22;74589;48.846;2.382;2024-01-30T03:33:17;12.80;19.80
84389;DHT22;74589;48.846;2.382;2024-01-30T03:35:43;12.80;19.40
84389;DHT22;74589;48.846;2.382;2024-01-30T03:38:08;12.80;19.50
84389;DHT22;74589;48.846;2.382;2024-01-30T03:40:34;12.80;19.80
84389;DHT22;74589;48.846;2.382;2024-01-30T03:43:00;12.70;20.40
84389;DHT22;74589;48.846;2.382;2024-01-30T03:45:25;12.70;20.30
84389;DHT22;74589;48.846;2.382;2024-01-30T03:47:51;12.80;20.20
84389;DHT22;74589;48.846;2.382;2024-01-30T03:50:16;12.80;20.30
84389;DHT22;74589;48.846;2.382;2024-01-30T03:52:42;12.80;20.40
84389;DHT22;74589;48.846;2.382;2024-01-30T03:55:08;12.80;20.60
84389;DHT22;74589;48.846;2.382;2024-01-30T03:57:33;12.90;19.70
84389;DHT22;74589;48.846;2.382;2024-01-30T03:59:59;12.90;20.00
84389;DHT22;74589;48.846;2.382;2024-01-30T04:02:24;12.80;20.40
84389;DHT22;74589;48.846;2.382;2024-01-30T04:04:50;12.80;20.10
84389;DHT22;74589;48.846;2.382;2024-01-30T04:07:16;12.90;19.70
84389;DHT22;74589;48.846;2.382;2024-01-30T04:09:41;13.00;19.60
84389;DHT22;74589;48.846;2.382;2024-01-30T04:12:07;12.80;20.00
84389;DHT22;74589;48.846;2.382;2024-01-30T04:14:33;12.60;21.30
84389;DHT22;74589;48.846;2.382;2024-01-30T04:16:58;12.50;21.70
84389;DHT22;74589;48.846;2.382;2024-01-30T04:19:24;12.70;21.30
84389;DHT22;74589;48.846;2.382;2024-01-30T04:21:50;12.60;21.30
84389;DHT22;74589;48.846;2.382;2024-01-30T04:24:15;12.60;21.50
84389;DHT22;74589;48.846;2.382;2024-01-30T04:26:43;12.60;21.30
84389;DHT22;74589;48.846;2.382;2024-01-30T04:29:09;12.70;21.00
84389;DHT22;74589;48.846;2.382;2024-01-30T04:31:36;12.70;21.30
84389;DHT22;74589;48.846;2.382;2024-01-30T04:34:02;12.70;21.90
84389;DHT22;74589;48.846;2.382;2024-01-30T04:36:28;12.60;21.80
84389;DHT22;74589;48.846;2.382;2024-01-30T04:38:53;12.60;21.80
84389;DHT22;74589;48.846;2.382;2024-01-30T04:41:19;12.60;22.10
84389;DHT22;74589;48.846;2.382;2024-01-30T04:43:44;12.60;21.40
84389;DHT22;74589;48.846;2.382;2024-01-30T04:46:10;12.50;21.70
84389;DHT22;74589;48.846;2.382;2024-01-30T04:48:36;12.70;21.00
84389;DHT22;74589;48.846;2.382;2024-01-30T04:51:01;12.70;21.40
84389;DHT22;74589;48.846;2.382;2024-01-30T04:53:30;12.80;20.70
84389;DHT22;74589;48.846;2.382;2024-01-30T04:55:56;12.70;21.60
84389;DHT22;74589;48.846;2.382;2024-01-30T04:58:22;12.80;21.20
84389;DHT22;74589;48.846;2.382;2024-01-30T05:00:47;12.70;21.60
84389;DHT22;74589;48.846;2.382;2024-01-30T05:03:17;12.80;21.10
84389;DHT22;74589;48.846;2.382;2024-01-30T05:05:43;12.80;21.60
84389;DHT22;74589;48.846;2.382;2024-01-30T05:08:08;12.90;21.00
84389;DHT22;74589;48.846;2.382;2024-01-30T05:10:34;12.90;20.90
84389;DHT22;74589;48.846;2.382;2024-01-30T05:12:59;12.90;21.30
84389;DHT22;74589;48.846;2.382;2024-01-30T05:15:25;12.80;21.20
84389;DHT22;74589;48.846;2.382;2024-01-30T05:17:51;12.90;20.60
84389;DHT22;74589;48.846;2.382;2024-01-30T05:20:17;12.90;21.10
84389;DHT22;74589;48.846;2.382;2024-01-30T05:22:42;12.80;20.60
84389;DHT22;74589;48.846;2.382;2024-01-30T05:25:11;12.80;21.30
84389;DHT22;74589;48.846;2.382;2024-01-30T05:27:37;12.80;21.40
84389;DHT22;74589;48.846;2.382;2024-01-30T05:30:03;12.70;22.20
84389;DHT22;74589;48.846;2.382;2024-01-30T05:32:29;12.60;22.80
84389;DHT22;74589;48.846;2.382;2024-01-30T05:34:55;12.50;23.20
84389;DHT22;74589;48.846;2.382;2024-01-30T05:37:20;12.60;23.10
84389;DHT22;74589;48.846;2.382;2024-01-30T05:39:46;12.60;23.00
84389;DHT22;74589;48.846;2.382;2024-01-30T05:42:12;12.60;22.80
84389;DHT22;74589;48.846;2.382;2024-01-30T05:44:37;12.70;22.90
84389;DHT22;74589;48.846;2.382;2024-01-30T05:47:03;12.70;22.50
84389;DHT22;74589;48.846;2.382;2024-01-30T05:49:29;12.80;22.30
84389;DHT22;74589;48.846;2.382;2024-01-30T05:51:54;12.90;22.10
84389;DHT22;74589;48.846;2.382;2024-01-30T05:54:21;12.80;22.10
84389;DHT22;74589;48.846;2.382;2024-01-30T05:56:46;12.90;22.10
84389;DHT22;74589;48.846;2.382;2024-01-30T05:59:12;12.80;22.20
84389;DHT22;74589;48.846;2.382;2024-01-30T06:01:38;12.80;22.40
84389;DHT22;74589;48.846;2.382;2024-01-30T06:04:03;12.90;22.20
84389;DHT22;74589;48.846;2.382;2024-01-30T06:06:29;12.90;22.20
84389;DHT22;74589;48.846;2.382;2024-01-30T06:08:54;12.90;22.40
84389;DHT22;74589;48.846;2.382;2024-01-30T06:11:21;13.00;22.30
84389;DHT22;74589;48.846;2.382;2024-01-30T06:13:47;13.00;22.20
84389;DHT22;74589;48.846;2.382;2024-01-30T06:16:12;13.00;22.00
84389;DHT22;74589;48.846;2.382;2024-01-30T06:18:38;13.00;22.10
84389;DHT22;74589;48.846;2.382;2024-01-30T06:21:04;13.00;22.20
84389;DHT22;74589;48.846;2.382;2024-01-30T06:23:30;13.10;22.20
84389;DHT22;74589;48.846;2.382;2024-01-30T06:25:56;13.00;22.40
84389;DHT22;74589;48.846;2.382;2024-01-30T06:28:21;13.10;22.30
84389;DHT22;74589;48.846;2.382;2024-01-30T06:30:47;13.20;21.90
84389;DHT22;74589;48.846;2.382;2024-01-30T06:33:13;13.20;22.00
84389;DHT22;74589;48.846;2.382;2024-01-30T06:35:39;13.20;22.00
84389;DHT22;74589;48.846;2.382;2024-01-30T06:38:06;13.20;22.20
84389;DHT22;74589;48.846;2.382;2024-01-30T06:40:32;13.20;21.70
84389;DHT22;74589;48.846;2.382;2024-01-30T06:42:57;13.20;22.00
84389;DHT22;74589;48.846;2.382;2024-01-30T06:45:23;13.20;22.30
84389;DHT22;74589;48.846;2.382;2024-01-30T06:47:48;13.20;22.20
84389;DHT22;74589;48.846;2.382;2024-01-30T06:50:14;13.20;22.40
84389;DHT22;74589;48.846;2.382;2024-01-30T06:52:40;13.20;22.20
84389;DHT22;74589;48.846;2.382;2024-01-30T06:55:06;13.20;22.20
84389;DHT22;74589;48.846;2.382;2024-01-30T06:57:31;13.30;22.10
84389;DHT22;74589;48.846;2.382;2024-01-30T06:59:57;13.20;22.20
84389;DHT22;74589;48.846;2.382;2024-01-30T07:02:23;13.30;22.10
84389;DHT22;74589;48.846;2.382;2024-01-30T07:04:48;13.30;22.50
84389;DHT22;74589;48.846;2.382;2024-01-30T07:07:14;13.30;22.00
84389;DHT22;74589;48.846;2.382;2024-01-30T07:09:41;13.40;21.90
84389;DHT22;74589;48.846;2.382;2024-01-30T07:12:06;13.40;22.20
84389;DHT22;74589;48.846;2.382;2024-01-30T07:14:33;13.50;21.20
84389;DHT22;74589;48.846;2.382;2024-01-30T07:16:58;13.50;21.20
84389;DHT22;74589;48.846;2.382;2024-01-30T07:19:24;13.50;21.10
84389;DHT22;74589;48.846;2.382;2024-01-30T07:21:49;13.50;21.20
84389;DHT22;74589;48.846;2.382;2024-01-30T07:24:15;13.60;20.90
84389;DHT22;74589;48.846;2.382;2024-01-30T07:26:41;13.60;20.80
84389;DHT22;74589;48.846;2.382;2024-01-30T07:29:06;13.50;21.10
84389;DHT22;74589;48.846;2.382;2024-01-30T07:31:32;13.50;21.30
84389;DHT22;74589;48.846;2.382;2024-01-30T07:33:57;13.60;21.10
84389;DHT22;74589;48.846;2.382;2024-01-30T07:36:23;13.60;20.90
84389;DHT22;74589;48.846;2.382;2024-01-30T07:38:49;13.60;20.60
84389;DHT22;74589;48.846;2.382;2024-01-30T07:41:14;13.60;20.80
84389;DHT22;74589;48.846;2.382;2024-01-30T07:43:40;13.60;21.00
84389;DHT22;74589;48.846;2.382;2024-01-30T07:46:05;13.60;21.00
84389;DHT22;74589;48.846;2.382;2024-01-30T07:48:33;13.60;20.90
84389;DHT22;74589;48.846;2.382;2024-01-30T07:50:59;13.60;20.90
84389;DHT22;74589;48.846;2.382;2024-01-30T07:53:25;13.60;20.90
84389;DHT22;74589;48.846;2.382;2024-01-30T07:55:50;13.60;21.10
84389;DHT22;74589;48.846;2.382;2024-01-30T07:58:16;13.50;21.30
84389;DHT22;74589;48.846;2.382;2024-01-30T08:00:42;13.60;21.00
84389;DHT22;74589;48.846;2.382;2024-01-30T08:03:07;13.60;20.90
84389;DHT22;74589;48.846;2.382;2024-01-30T08:05:33;13.60;21.10
84389;DHT22;74589;48.846;2.382;2024-01-30T08:07:58;13.70;20.90
84389;DHT22;74589;48.846;2.382;2024-01-30T08:10:25;13.60;20.80
84389;DHT22;74589;48.846;2.382;2024-01-30T08:12:50;13.70;20.60
84389;DHT22;74589;48.846;2.382;2024-01-30T08:15:16;13.60;21.10
84389;DHT22;74589;48.846;2.382;2024-01-30T08:17:41;13.70;20.90
84389;DHT22;74589;48.846;2.382;2024-01-30T08:20:07;13.70;21.10
84389;DHT22;74589;48.846;2.382;2024-01-30T08:22:38;13.70;20.70
84389;DHT22;74589;48.846;2.382;2024-01-30T08:25:06;13.70;20.70
84389;DHT22;74589;48.846;2.382;2024-01-30T08:27:31;13.80;20.30
84389;DHT22;74589;48.846;2.382;2024-01-30T08:29:57;13.80;20.30
84389;DHT22;74589;48.846;2.382;2024-01-30T08:32:23;13.70;20.70
84389;DHT22;74589;48.846;2.382;2024-01-30T08:34:49;13.80;20.30
84389;DHT22;74589;48.846;2.382;2024-01-30T08:37:15;13.80;20.40
84389;DHT22;74589;48.846;2.382;2024-01-30T08:39:43;13.90;19.90
84389;DHT22;74589;48.846;2.382;2024-01-30T08:42:08;13.90;20.10
84389;DHT22;74589;48.846;2.382;2024-01-30T08:44:34;13.80;20.00
84389;DHT22;74589;48.846;2.382;2024-01-30T08:46:59;13.70;20.50
84389;DHT22;74589;48.846;2.382;2024-01-30T08:49:25;13.80;20.00
84389;DHT22;74589;48.846;2.382;2024-01-30T08:51:51;13.80;20.40
84389;DHT22;74589;48.846;2.382;2024-01-30T08:54:16;13.80;20.00
84389;DHT22;74589;48.846;2.382;2024-01-30T08:56:42;13.80;19.90
84389;DHT22;74589;48.846;2.382;2024-01-30T08:59:08;13.80;20.50
84389;DHT22;74589;48.846;2.382;2024-01-30T09:01:34;13.70;20.30
84389;DHT22;74589;48.846;2.382;2024-01-30T09:03:59;13.60;20.90
84389;DHT22;74589;48.846;2.382;2024-01-30T09:06:25;13.70;20.90
84389;DHT22;74589;48.846;2.382;2024-01-30T09:08:53;13.70;21.10
84389;DHT22;74589;48.846;2.382;2024-01-30T09:11:19;13.70;20.80
84389;DHT22;74589;48.846;2.382;2024-01-30T09:13:44;13.70;21.00
84389;DHT22;74589;48.846;2.382;2024-01-30T09:16:10;13.70;21.30
84389;DHT22;74589;48.846;2.382;2024-01-30T09:18:36;13.80;20.80
84389;DHT22;74589;48.846;2.382;2024-01-30T09:21:01;13.70;21.00
84389;DHT22;74589;48.846;2.382;2024-01-30T09:23:28;13.80;20.80
84389;DHT22;74589;48.846;2.382;2024-01-30T09:25:53;13.80;20.70
84389;DHT22;74589;48.846;2.382;2024-01-30T09:28:19;13.80;20.90
84389;DHT22;74589;48.846;2.382;2024-01-30T09:30:45;13.80;20.50
84389;DHT22;74589;48.846;2.382;2024-01-30T09:33:10;13.80;20.40
84389;DHT22;74589;48.846;2.382;2024-01-30T09:35:36;13.90;20.60
84389;DHT22;74589;48.846;2.382;2024-01-30T09:38:02;13.80;20.70
84389;DHT22;74589;48.846;2.382;2024-01-30T09:40:28;13.90;20.70
84389;DHT22;74589;48.846;2.382;2024-01-30T09:42:55;13.90;20.50
84389;DHT22;74589;48.846;2.382;2024-01-30T09:45:24;13.90;20.30
84389;DHT22;74589;48.846;2.382;2024-01-30T09:47:51;13.90;20.20
84389;DHT22;74589;48.846;2.382;2024-01-30T09:50:17;14.00;20.40
84389;DHT22;74589;48.846;2.382;2024-01-30T09:52:44;14.00;20.20
84389;DHT22;74589;48.846;2.382;2024-01-30T09:55:09;14.00;20.40
84389;DHT22;74589;48.846;2.382;2024-01-30T09:57:35;13.90;20.60
84389;DHT22;74589;48.846;2.382;2024-01-30T10:00:03;14.00;20.10
84389;DHT22;74589;48.846;2.382;2024-01-30T10:02:31;13.90;20.70
84389;DHT22;74589;48.846;2.382;2024-01-30T10:04:57;14.00;20.00
84389;DHT22;74589;48.846;2.382;2024-01-30T10:07:22;14.10;20.60
84389;DHT22;74589;48.846;2.382;2024-01-30T10:09:48;14.00;20.60
84389;DHT22;74589;48.846;2.382;2024-01-30T10:12:15;14.00;21.10
84389;DHT22;74589;48.846;2.382;2024-01-30T10:14:42;14.00;20.60
84389;DHT22;74589;48.846;2.382;2024-01-30T10:17:08;14.00;20.80
84389;DHT22;74589;48.846;2.382;2024-01-30T10:19:39;14.00;20.70
84389;DHT22;74589;48.846;2.382;2024-01-30T10:22:04;14.10;20.50
84389;DHT22;74589;48.846;2.382;2024-01-30T10:24:31;14.10;20.20
84389;DHT22;74589;48.846;2.382;2024-01-30T10:26:57;14.10;20.10
84389;DHT22;74589;48.846;2.382;2024-01-30T10:29:22;14.10;20.50
84389;DHT22;74589;48.846;2.382;2024-01-30T10:32:01;14.10;20.60
84389;DHT22;74589;48.846;2.382;2024-01-30T10:34:27;14.20;20.70
84389;DHT22;74589;48.846;2.382;2024-01-30T10:37:05;14.20;20.10
84389;DHT22;74589;48.846;2.382;2024-01-30T10:39:36;14.30;19.90
84389;DHT22;74589;48.846;2.382;2024-01-30T10:42:04;14.30;19.90
84389;DHT22;74589;48.846;2.382;2024-01-30T10:44:37;14.30;19.80
84389;DHT22;74589;48.846;2.382;2024-01-30T10:47:06;14.30;19.50
84389;DHT22;74589;48.846;2.382;2024-01-30T10:49:35;14.50;19.00
84389;DHT22;74589;48.846;2.382;2024-01-30T10:52:03;14.40;19.30
84389;DHT22;74589;48.846;2.382;2024-01-30T10:54:30;14.40;19.30
84389;DHT22;74589;48.846;2.382;2024-01-30T10:56:57;14.30;19.70
84389;DHT22;74589;48.846;2.382;2024-01-30T10:59:27;14.30;20.00
84389;DHT22;74589;48.846;2.382;2024-01-30T11:01:53;14.30;19.80
84389;DHT22;74589;48.846;2.382;2024-01-30T11:04:19;14.40;19.50
84389;DHT22;74589;48.846;2.382;2024-01-30T11:06:49;14.40;19.70
84389;DHT22;74589;48.846;2.382;2024-01-30T11:09:17;14.40;19.80
84389;DHT22;74589;48.846;2.382;2024-01-30T11:11:56;14.50;19.40
84389;DHT22;74589;48.846;2.382;2024-01-30T11:14:26;14.60;18.90
84389;DHT22;74589;48.846;2.382;2024-01-30T11:16:52;14.70;18.60
84389;DHT22;74589;48.846;2.382;2024-01-30T11:19:27;14.70;18.10
84389;DHT22;74589;48.846;2.382;2024-01-30T11:21:56;14.70;18.50
84389;DHT22;74589;48.846;2.382;2024-01-30T11:24:24;14.70;18.60
84389;DHT22;74589;48.846;2.382;2024-01-30T11:26:56;14.60;18.60
84389;DHT22;74589;48.846;2.382;2024-01-30T11:29:29;14.70;18.40
84389;DHT22;74589;48.846;2.382;2024-01-30T11:31:56;14.70;18.60
84389;DHT22;74589;48.846;2.382;2024-01-30T11:34:21;14.60;18.50
84389;DHT22;74589;48.846;2.382;2024-01-30T11:36:55;14.60;18.40
84389;DHT22;74589;48.846;2.382;2024-01-30T11:39:25;14.80;17.90
84389;DHT22;74589;48.846;2.382;2024-01-30T11:41:51;14.80;17.80
84389;DHT22;74589;48.846;2.382;2024-01-30T11:44:19;14.80;17.90
84389;DHT22;74589;48.846;2.382;2024-01-30T11:46:46;14.70;18.00
84389;DHT22;74589;48.846;2.382;2024-01-30T11:49:12;14.60;18.10
84389;DHT22;74589;48.846;2.382;2024-01-30T11:51:38;14.60;18.20
84389;DHT22;74589;48.846;2.382;2024-01-30T11:54:04;14.70;18.20
84389;DHT22;74589;48.846;2.382;2024-01-30T11:56:29;14.60;17.00
84389;DHT22;74589;48.846;2.382;2024-01-30T11:58:55;14.60;16.70
84389;DHT22;74589;48.846;2.382;2024-01-30T12:01:21;14.70;15.50
84389;DHT22;74589;48.846;2.382;2024-01-30T12:03:50;14.70;14.40
84389;DHT22;74589;48.846;2.382;2024-01-30T12:06:16;14.70;13.30
84389;DHT22;74589;48.846;2.382;2024-01-30T12:08:42;14.80;13.50
84389;DHT22;74589;48.846;2.382;2024-01-30T12:11:10;14.90;12.70
84389;DHT22;74589;48.846;2.382;2024-01-30T12:13:36;14.80;12.20
84389;DHT22;74589;48.846;2.382;2024-01-30T12:16:02;14.90;11.50
84389;DHT22;74589;48.846;2.382;2024-01-30T12:18:27;14.90;11.30
84389;DHT22;74589;48.846;2.382;2024-01-30T12:21:00;14.90;10.80
84389;DHT22;74589;48.846;2.382;2024-01-30T12:23:27;14.90;10.20
84389;DHT22;74589;48.846;2.382;2024-01-30T12:25:53;14.90;10.00
84389;DHT22;74589;48.846;2.382;2024-01-30T12:28:20;15.00;9.20
84389;DHT22;74589;48.846;2.382;2024-01-30T12:30:46;15.00;8.80
84389;DHT22;74589;48.846;2.382;2024-01-30T12:33:17;15.00;8.00
84389;DHT22;74589;48.846;2.382;2024-01-30T12:35:47;15.10;7.90
84389;DHT22;74589;48.846;2.382;2024-01-30T12:38:15;15.10;7.70
84389;DHT22;74589;48.846;2.382;2024-01-30T12:40:41;15.20;7.20
84389;DHT22;74589;48.846;2.382;2024-01-30T12:43:07;15.20;6.70
84389;DHT22;74589;48.846;2.382;2024-01-30T12:45:32;15.10;7.30
84389;DHT22;74589;48.846;2.382;2024-01-30T12:47:58;15.10;7.60
84389;DHT22;74589;48.846;2.382;2024-01-30T12:50:24;15.10;7.00
84389;DHT22;74589;48.846;2.382;2024-01-30T12:52:50;15.20;7.30
84389;DHT22;74589;48.846;2.382;2024-01-30T12:55:16;15.30;6.90
84389;DHT22;74589;48.846;2.382;2024-01-30T12:57:41;15.30;7.10
84389;DHT22;74589;48.846;2.382;2024-01-30T13:00:08;15.30;6.90
84389;DHT22;74589;48.846;2.382;2024-01-30T13:02:34;15.30;6.50
84389;DHT22;74589;48.846;2.382;2024-01-30T13:05:02;15.30;6.60
84389;DHT22;74589;48.846;2.382;2024-01-30T13:07:28;15.30;6.20
84389;DHT22;74589;48.846;2.382;2024-01-30T13:09:54;15.30;6.30
84389;DHT22;74589;48.846;2.382;2024-01-30T13:12:19;15.30;5.70
84389;DHT22;74589;48.846;2.382;2024-01-30T13:14:45;15.30;6.00
84389;DHT22;74589;48.846;2.382;2024-01-30T13:17:11;15.20;6.50
84389;DHT22;74589;48.846;2.382;2024-01-30T13:19:36;15.20;6.70
84389;DHT22;74589;48.846;2.382;2024-01-30T13:22:02;15.20;6.40
84389;DHT22;74589;48.846;2.382;2024-01-30T13:24:27;15.10;6.30
84389;DHT22;74589;48.846;2.382;2024-01-30T13:26:53;15.20;6.30
84389;DHT22;74589;48.846;2.382;2024-01-30T13:29:19;15.20;5.90
84389;DHT22;74589;48.846;2.382;2024-01-30T13:31:44;15.10;6.10
84389;DHT22;74589;48.846;2.382;2024-01-30T13:34:11;15.00;6.40
84389;DHT22;74589;48.846;2.382;2024-01-30T13:36:38;15.00;6.80
84389;DHT22;74589;48.846;2.382;2024-01-30T13:39:03;15.00;6.80
84389;DHT22;74589;48.846;2.382;2024-01-30T13:41:33;15.10;6.90
84389;DHT22;74589;48.846;2.382;2024-01-30T13:43:58;15.10;7.10
84389;DHT22;74589;48.846;2.382;2024-01-30T13:46:24;15.20;6.70
84389;DHT22;74589;48.846;2.382;2024-01-30T13:48:50;15.20;6.80
84389;DHT22;74589;48.846;2.382;2024-01-30T13:51:16;15.20;6.90
84389;DHT22;74589;48.846;2.382;2024-01-30T13:53:42;15.20;7.00
84389;DHT22;74589;48.846;2.382;2024-01-30T13:56:08;15.20;7.00
84389;DHT22;74589;48.846;2.382;2024-01-30T13:58:33;15.20;7.00
84389;DHT22;74589;48.846;2.382;2024-01-30T14:01:01;15.20;6.60
84389;DHT22;74589;48.846;2.382;2024-01-30T14:03:27;15.20;6.60
84389;DHT22;74589;48.846;2.382;2024-01-30T14:05:53;15.10;6.60
84389;DHT22;74589;48.846;2.382;2024-01-30T14:08:19;15.10;6.30
84389;DHT22;74589;48.846;2.382;2024-01-30T14:10:47;15.20;6.00
84389;DHT22;74589;48.846;2.382;2024-01-30T14:13:13;15.10;5.60
84389;DHT22;74589;48.846;2.382;2024-01-30T14:15:38;15.10;5.90
84389;DHT22;74589;48.846;2.382;2024-01-30T14:18:05;15.10;5.80
84389;DHT22;74589;48.846;2.382;2024-01-30T14:20:30;15.10;5.40
84389;DHT22;74589;48.846;2.382;2024-01-30T14:22:56;15.10;4.60
84389;DHT22;74589;48.846;2.382;2024-01-30T14:25:22;15.10;4.80
84389;DHT22;74589;48.846;2.382;2024-01-30T14:27:48;15.10;5.20
84389;DHT22;74589;48.846;2.382;2024-01-30T14:30:13;15.10;4.60
84389;DHT22;74589;48.846;2.382;2024-01-30T14:32:39;15.20;3.90
84389;DHT22;74589;48.846;2.382;2024-01-30T14:35:06;15.10;3.90
84389;DHT22;74589;48.846;2.382;2024-01-30T14:37:31;15.10;3.70
84389;DHT22;74589;48.846;2.382;2024-01-30T14:39:57;15.10;3.30
84389;DHT22;74589;48.846;2.382;2024-01-30T14:42:23;15.00;3.40
84389;DHT22;74589;48.846;2.382;2024-01-30T14:44:48;15.00;3.70
84389;DHT22;74589;48.846;2.382;2024-01-30T14:47:14;15.00;3.60
84389;DHT22;74589;48.846;2.382;2024-01-30T14:49:40;15.00;3.60
84389;DHT22;74589;48.846;2.382;2024-01-30T14:52:05;15.10;3.30
84389;DHT22;74589;48.846;2.382;2024-01-30T14:54:31;15.00;3.40
84389;DHT22;74589;48.846;2.382;2024-01-30T14:56:57;15.00;3.50
84389;DHT22;74589;48.846;2.382;2024-01-30T14:59:24;15.00;3.10
84389;DHT22;74589;48.846;2.382;2024-01-30T15:01:50;14.90;2.50
84389;DHT22;74589;48.846;2.382;2024-01-30T15:04:16;14.90;2.70
84389;DHT22;74589;48.846;2.382;2024-01-30T15:06:41;14.90;2.50
84389;DHT22;74589;48.846;2.382;2024-01-30T15:09:12;14.90;2.40
84389;DHT22;74589;48.846;2.382;2024-01-30T15:11:44;14.80;2.90
84389;DHT22;74589;48.846;2.382;2024-01-30T15:14:09;14.80;2.50
84389;DHT22;74589;48.846;2.382;2024-01-30T15:16:35;14.80;2.30
84389;DHT22;74589;48.846;2.382;2024-01-30T15:19:01;14.90;2.10
84389;DHT22;74589;48.846;2.382;2024-01-30T15:21:28;14.80;1.90
84389;DHT22;74589;48.846;2.382;2024-01-30T15:23:54;14.80;1.70
84389;DHT22;74589;48.846;2.382;2024-01-30T15:26:20;14.80;1.40
84389;DHT22;74589;48.846;2.382;2024-01-30T15:28:46;14.80;1.20